Time;durP1;ratioP1;P1;durP2;ratioP2;P2;SDS_P1;SDS_P2;PMS_P1;PMS_P2;Temp;Humidity;BMP_temperature;BMP_pressure;BME280_temperature;BME280_humidity;BME280_pressure;Samples;Min_cycle;Max_cycle;Signal;HPM_P1;HPM_P2
2023/01/14 00:02:11;;;;;;;15.88;10.52;;;8.80;99.90;;;;;;5231994;28;20155;-73
2023/01/14 00:04:42;;;;;;;21.88;12.80;;;9.00;99.90;;;;;;5228858;28;20507;-72
2023/01/14 00:07:12;;;;;;;16.00;8.27;;;8.50;99.90;;;;;;5232841;28;20056;-72
2023/01/14 00:09:43;;;;;;;16.52;8.45;;;8.80;99.90;;;;;;5233352;28;20594;-69
2023/01/14 00:12:14;;;;;;;16.73;10.02;;;8.70;99.90;;;;;;5232075;28;20102;-68
2023/01/14 00:14:48;;;;;;;16.15;9.43;;;9.00;99.90;;;;;;5235060;28;20051;-71
2023/01/14 00:17:24;;;;;;;18.85;10.00;;;8.50;99.90;;;;;;5223275;28;20040;-70
2023/01/14 00:20:01;;;;;;;12.23;8.38;;;8.60;99.90;;;;;;5223479;28;20055;-70
2023/01/14 00:22:41;;;;;;;13.75;9.57;;;8.60;99.90;;;;;;5224717;28;20029;-70
2023/01/14 00:25:14;;;;;;;12.52;8.93;;;8.80;99.90;;;;;;5231339;28;20029;-71
2023/01/14 00:27:45;;;;;;;14.25;7.18;;;8.40;99.90;;;;;;5228120;28;20036;-71
2023/01/14 00:30:16;;;;;;;15.27;7.70;;;8.80;99.90;;;;;;5230866;28;20032;-72
2023/01/14 00:32:47;;;;;;;14.30;7.55;;;8.90;99.90;;;;;;5230998;28;20028;-69
2023/01/14 00:35:18;;;;;;;11.98;8.40;;;8.70;99.90;;;;;;5230609;28;20025;-70
2023/01/14 00:37:49;;;;;;;15.05;8.48;;;8.50;99.90;;;;;;5232970;28;20028;-72
2023/01/14 00:40:20;;;;;;;8.93;8.02;;;8.60;99.90;;;;;;5230766;28;20040;-71
2023/01/14 00:42:50;;;;;;;11.50;10.13;;;8.70;99.90;;;;;;5227509;28;20039;-71
2023/01/14 00:45:21;;;;;;;17.13;12.60;;;8.60;99.90;;;;;;5228617;28;20509;-70
2023/01/14 00:47:52;;;;;;;13.90;7.78;;;8.70;99.90;;;;;;5226676;28;20033;-72
2023/01/14 00:50:23;;;;;;;16.63;7.82;;;8.50;99.90;;;;;;5229703;28;20035;-70
2023/01/14 00:52:54;;;;;;;10.68;6.85;;;8.70;99.90;;;;;;5229130;28;20035;-70
2023/01/14 00:55:24;;;;;;;9.70;7.45;;;8.50;99.90;;;;;;5231154;28;20033;-70
2023/01/14 00:57:56;;;;;;;15.15;8.52;;;8.30;99.90;;;;;;5227143;28;20021;-69
2023/01/14 01:00:27;;;;;;;21.02;8.55;;;8.30;99.90;;;;;;5232279;28;20105;-73
2023/01/14 01:02:58;;;;;;;13.95;7.30;;;8.50;99.90;;;;;;5229067;28;20120;-71
2023/01/14 01:05:33;;;;;;;15.13;8.50;;;8.40;99.90;;;;;;5227102;28;20025;-72
2023/01/14 01:08:05;;;;;;;10.02;7.00;;;8.20;99.90;;;;;;5232030;28;20404;-68
2023/01/14 01:10:36;;;;;;;17.63;8.23;;;8.40;99.90;;;;;;5222805;28;20021;-69
2023/01/14 01:13:07;;;;;;;14.85;10.55;;;8.50;99.90;;;;;;5229060;28;20033;-70
2023/01/14 01:15:39;;;;;;;17.20;8.98;;;8.40;99.90;;;;;;5225599;28;20041;-68
2023/01/14 01:18:11;;;;;;;14.75;9.73;;;8.60;99.90;;;;;;5236732;28;20047;-72
2023/01/14 01:20:42;;;;;;;14.57;11.13;;;8.50;99.90;;;;;;5232360;28;20033;-68
2023/01/14 01:23:14;;;;;;;15.13;10.13;;;8.40;99.90;;;;;;5227748;28;20101;-71
2023/01/14 01:25:45;;;;;;;13.68;9.27;;;8.40;99.90;;;;;;5231874;28;20053;-70
2023/01/14 01:28:16;;;;;;;15.65;9.27;;;8.30;99.90;;;;;;5227074;28;20487;-72
2023/01/14 01:30:46;;;;;;;11.77;10.57;;;8.60;99.90;;;;;;5231691;28;20086;-70
2023/01/14 01:33:17;;;;;;;14.95;9.45;;;8.70;99.90;;;;;;5232053;28;20135;-72
2023/01/14 01:35:49;;;;;;;17.27;9.30;;;8.30;99.90;;;;;;5231260;28;20048;-71
2023/01/14 01:38:19;;;;;;;14.20;8.30;;;8.50;99.90;;;;;;5227272;28;20777;-72
2023/01/14 01:40:50;;;;;;;14.52;9.77;;;8.40;99.90;;;;;;5226347;28;20106;-71
2023/01/14 01:43:24;;;;;;;14.93;9.55;;;8.40;99.90;;;;;;5225767;28;20511;-69
2023/01/14 01:46:01;;;;;;;14.65;7.70;;;8.80;99.90;;;;;;5230847;28;20416;-69
2023/01/14 01:48:44;;;;;;;16.73;9.60;;;8.60;99.90;;;;;;5225037;28;20022;-73
2023/01/14 01:51:26;;;;;;;18.88;9.77;;;8.40;99.90;;;;;;5229680;28;20032;-70
2023/01/14 01:53:59;;;;;;;14.80;9.82;;;8.60;99.90;;;;;;5229141;28;20086;-72
2023/01/14 01:56:34;;;;;;;22.52;12.10;;;8.30;99.90;;;;;;5230166;28;20146;-71
2023/01/14 01:59:09;;;;;;;21.13;10.05;;;8.10;99.90;;;;;;5231064;28;20032;-73
2023/01/14 02:01:41;;;;;;;18.65;10.80;;;8.40;99.90;;;;;;5234193;28;20426;-69
2023/01/14 02:04:12;;;;;;;21.75;11.25;;;8.20;99.90;;;;;;5225927;28;20051;-71
2023/01/14 02:06:43;;;;;;;15.10;10.68;;;8.00;99.90;;;;;;5231579;28;21184;-72
2023/01/14 02:09:15;;;;;;;17.90;12.02;;;8.00;99.90;;;;;;5233033;28;20079;-68
2023/01/14 02:12:08;;;;;;;20.45;11.32;;;8.30;99.90;;;;;;5232652;28;20369;-73
2023/01/14 02:15:16;;;;;;;13.60;11.43;;;7.90;99.90;;;;;;5236083;28;20106;-69
2023/01/14 02:18:06;;;;;;;17.27;10.07;;;8.10;99.90;;;;;;5230212;28;20741;-72
2023/01/14 02:20:46;;;;;;;22.52;12.43;;;8.10;99.90;;;;;;5230097;28;20040;-69
2023/01/14 02:23:29;;;;;;;15.97;11.63;;;8.10;99.90;;;;;;5232420;28;20076;-69
2023/01/14 02:26:20;;;;;;;18.60;12.10;;;8.20;99.90;;;;;;5236809;28;20035;-71
2023/01/14 02:29:18;;;;;;;24.08;11.15;;;8.30;99.90;;;;;;5234856;28;20040;-71
2023/01/14 02:32:17;;;;;;;17.52;10.98;;;8.20;99.90;;;;;;5229441;28;20392;-70
2023/01/14 02:34:57;;;;;;;16.63;11.93;;;8.00;99.90;;;;;;5232249;28;20025;-71
2023/01/14 02:37:43;;;;;;;18.20;11.32;;;8.20;99.90;;;;;;5231156;28;20383;-70
2023/01/14 02:40:48;;;;;;;19.65;12.20;;;8.50;99.90;;;;;;5228566;28;20135;-69
2023/01/14 02:46:37;;;;;;;16.98;12.18;;;8.10;99.90;;;;;;5233227;28;20534;-70
2023/01/14 02:49:13;;;;;;;17.92;11.20;;;8.30;99.90;;;;;;5232263;28;20033;-72
2023/01/14 02:51:46;;;;;;;20.33;12.70;;;8.10;99.90;;;;;;5230418;28;20028;-69
2023/01/14 02:54:17;;;;;;;18.65;13.50;;;8.20;99.90;;;;;;5234587;28;20507;-72
2023/01/14 02:56:49;;;;;;;15.77;11.55;;;8.10;99.90;;;;;;5234972;28;20037;-69
2023/01/14 02:59:37;;;;;;;19.30;12.23;;;7.90;99.90;;;;;;5231059;28;20113;-72
2023/01/14 03:02:27;;;;;;;20.05;12.13;;;8.20;99.90;;;;;;5228275;28;20051;-71
2023/01/14 03:05:09;;;;;;;22.90;12.98;;;7.90;99.90;;;;;;5228663;28;20495;-72
2023/01/14 03:07:40;;;;;;;24.60;10.93;;;8.00;99.90;;;;;;5240149;28;20037;-71
2023/01/14 03:10:25;;;;;;;17.60;9.05;;;8.10;99.90;;;;;;5236027;28;20765;-71
2023/01/14 03:13:01;;;;;;;14.90;8.73;;;8.40;99.90;;;;;;5234544;28;20587;-72
2023/01/14 03:15:55;;;;;;;12.80;11.18;;;8.10;99.90;;;;;;5226040;28;20033;-72
2023/01/14 03:18:33;;;;;;;13.27;11.05;;;8.60;99.90;;;;;;5227063;28;20108;-71
2023/01/14 03:21:18;;;;;;;15.40;9.80;;;8.30;99.90;;;;;;5228624;28;20033;-69
2023/01/14 03:24:15;;;;;;;13.52;9.95;;;8.00;99.90;;;;;;5226105;28;20555;-71
2023/01/14 03:26:48;;;;;;;13.48;8.77;;;8.10;99.90;;;;;;5233221;28;20037;-70
2023/01/14 03:29:33;;;;;;;12.73;10.20;;;8.10;99.90;;;;;;5234436;28;20025;-70
2023/01/14 03:32:14;;;;;;;13.07;10.07;;;8.00;99.90;;;;;;5232192;28;20384;-71
2023/01/14 03:34:59;;;;;;;15.77;10.55;;;8.00;99.90;;;;;;5233605;28;20143;-68
2023/01/14 03:37:32;;;;;;;12.13;10.05;;;8.30;99.90;;;;;;5236511;28;20055;-71
2023/01/14 03:40:08;;;;;;;16.88;9.60;;;8.40;99.90;;;;;;5231753;28;20027;-72
2023/01/14 03:42:46;;;;;;;17.30;9.65;;;8.20;99.90;;;;;;5231283;28;21188;-69
2023/01/14 03:45:29;;;;;;;13.35;10.57;;;8.20;99.90;;;;;;5234732;28;20056;-70
2023/01/14 03:48:01;;;;;;;17.27;10.80;;;8.20;99.90;;;;;;5228554;28;20517;-72
2023/01/14 03:50:40;;;;;;;13.63;9.35;;;8.20;99.90;;;;;;5229237;28;20021;-70
2023/01/14 03:53:54;;;;;;;18.50;11.33;;;8.30;99.90;;;;;;5236284;28;20883;-68
2023/01/14 03:56:51;;;;;;;12.18;8.50;;;8.50;99.90;;;;;;5234650;28;20085;-71
2023/01/14 03:59:35;;;;;;;16.00;10.15;;;8.10;99.90;;;;;;5227520;28;20428;-70
2023/01/14 04:02:08;;;;;;;13.90;8.60;;;8.00;99.90;;;;;;5226427;28;20065;-70
2023/01/14 04:04:41;;;;;;;13.85;8.18;;;8.00;99.90;;;;;;5227324;28;20029;-71
2023/01/14 04:07:12;;;;;;;13.32;9.35;;;8.30;99.90;;;;;;5230531;28;20417;-69
2023/01/14 04:09:43;;;;;;;12.75;10.45;;;8.40;99.90;;;;;;5230117;28;20028;-71
2023/01/14 04:12:14;;;;;;;13.82;10.30;;;8.00;99.90;;;;;;5233708;28;20033;-68
2023/01/14 04:17:37;;;;;;;13.82;8.65;;;8.20;99.90;;;;;;5226548;28;20489;-71
2023/01/14 04:20:09;;;;;;;11.05;9.38;;;8.00;99.90;;;;;;5236610;28;20036;-69
2023/01/14 04:22:40;;;;;;;11.73;10.50;;;7.70;99.90;;;;;;5231038;28;20047;-69
2023/01/14 04:25:10;;;;;;;9.90;8.05;;;8.10;99.90;;;;;;5231848;28;20596;-68
2023/01/14 04:27:41;;;;;;;12.80;9.50;;;8.20;99.90;;;;;;5229325;28;20033;-68
2023/01/14 04:30:12;;;;;;;10.77;7.90;;;8.20;99.90;;;;;;5221387;28;20062;-72
2023/01/14 04:32:43;;;;;;;9.75;8.75;;;8.00;99.90;;;;;;5229527;28;20074;-71
2023/01/14 04:35:15;;;;;;;10.50;9.15;;;8.00;99.90;;;;;;5232218;28;20050;-69
2023/01/14 04:37:46;;;;;;;10.10;7.97;;;8.10;99.90;;;;;;5232474;28;20029;-71
2023/01/14 04:40:17;;;;;;;13.15;11.20;;;7.80;99.90;;;;;;5232609;28;20029;-70
2023/01/14 04:42:49;;;;;;;12.43;7.82;;;8.10;99.90;;;;;;5237376;28;20041;-73
2023/01/14 04:45:22;;;;;;;10.45;8.23;;;7.90;99.90;;;;;;5229849;28;20156;-73
2023/01/14 04:47:53;;;;;;;11.20;8.68;;;7.70;99.90;;;;;;5226408;28;20078;-70
2023/01/14 04:50:41;;;;;;;12.90;9.57;;;7.70;99.90;;;;;;5234844;28;20418;-70
2023/01/14 04:53:17;;;;;;;13.02;10.15;;;8.10;99.90;;;;;;5231923;28;20484;-71
2023/01/14 04:55:51;;;;;;;15.00;10.00;;;7.70;99.90;;;;;;5230354;28;20021;-70
2023/01/14 04:58:22;;;;;;;15.35;9.02;;;7.90;99.90;;;;;;5225344;28;20036;-72
2023/01/14 05:00:53;;;;;;;15.20;10.00;;;7.80;99.90;;;;;;5231337;28;20017;-70
2023/01/14 05:03:24;;;;;;;22.15;12.10;;;7.80;99.90;;;;;;5232615;28;20068;-70
2023/01/14 05:05:55;;;;;;;14.77;10.95;;;7.80;99.90;;;;;;5225991;28;20425;-71
2023/01/14 05:08:26;;;;;;;16.95;12.43;;;7.80;99.90;;;;;;5228835;28;20047;-69
2023/01/14 05:10:56;;;;;;;16.83;10.88;;;8.00;99.90;;;;;;5229290;28;20434;-69
2023/01/14 05:13:27;;;;;;;21.42;14.38;;;7.90;99.90;;;;;;5227618;28;20024;-72
2023/01/14 05:16:02;;;;;;;19.38;12.30;;;8.00;99.90;;;;;;5229320;28;20025;-71
2023/01/14 05:18:33;;;;;;;14.43;10.23;;;8.00;99.90;;;;;;5229499;28;20481;-72
2023/01/14 05:21:05;;;;;;;13.38;11.43;;;8.50;99.90;;;;;;5229597;28;20028;-71
2023/01/14 05:23:37;;;;;;;15.75;11.02;;;8.10;99.90;;;;;;5220464;28;20497;-69
2023/01/14 05:26:08;;;;;;;16.95;10.20;;;8.00;99.90;;;;;;5230853;28;20055;-71
2023/01/14 05:28:38;;;;;;;18.60;10.00;;;8.10;99.90;;;;;;5221380;28;20041;-71
2023/01/14 05:31:09;;;;;;;14.10;9.50;;;8.00;99.90;;;;;;5230219;28;20055;-72
2023/01/14 05:33:40;;;;;;;17.77;10.65;;;7.70;99.90;;;;;;5233997;28;20033;-69
2023/01/14 05:36:11;;;;;;;17.45;11.90;;;7.80;99.90;;;;;;5226901;28;20033;-72
2023/01/14 05:38:42;;;;;;;14.75;10.20;;;8.20;99.90;;;;;;5228984;28;20143;-68
2023/01/14 05:41:13;;;;;;;17.65;12.25;;;8.10;99.90;;;;;;5236123;28;20027;-72
2023/01/14 05:46:33;;;;;;;13.93;11.02;;;7.80;99.90;;;;;;5231111;28;20178;-72
2023/01/14 05:49:04;;;;;;;24.98;14.45;;;8.10;99.90;;;;;;5226737;28;20033;-70
2023/01/14 05:51:41;;;;;;;13.60;10.02;;;8.10;99.90;;;;;;5228695;28;20425;-71
2023/01/14 05:54:12;;;;;;;14.50;10.93;;;7.80;99.90;;;;;;5224463;28;20071;-70
2023/01/14 05:56:43;;;;;;;19.52;12.20;;;7.80;99.90;;;;;;5236307;28;20163;-68
2023/01/14 05:59:13;;;;;;;16.15;9.60;;;7.80;99.90;;;;;;5233497;28;20032;-68
2023/01/14 06:07:24;;;;;;;14.98;11.00;;;7.80;99.90;;;;;;5238068;28;20032;-70
2023/01/14 06:09:54;;;;;;;14.32;10.65;;;7.90;99.90;;;;;;5230643;28;20480;-70
2023/01/14 06:13:14;;;;;;;20.52;11.13;;;8.10;99.90;;;;;;5232824;28;20028;-70
2023/01/14 06:15:16;;;;;;;16.58;12.02;;;8.00;99.90;;;;;;5223723;28;20460;-68
2023/01/14 06:17:57;;;;;;;17.10;10.88;;;8.40;99.90;;;;;;5235204;28;20059;-68
2023/01/14 06:20:28;;;;;;;14.82;11.65;;;8.30;99.90;;;;;;5230554;28;20028;-69
2023/01/14 06:22:59;;;;;;;13.23;11.30;;;8.10;99.90;;;;;;5237861;28;20086;-70
2023/01/14 06:25:31;;;;;;;13.60;10.48;;;8.00;99.90;;;;;;5237682;28;20468;-69
2023/01/14 06:28:02;;;;;;;14.20;10.75;;;7.70;99.90;;;;;;5234746;28;20428;-70
2023/01/14 06:30:32;;;;;;;20.00;10.85;;;8.10;99.90;;;;;;5229198;28;20113;-72
2023/01/14 06:33:06;;;;;;;14.40;10.70;;;7.60;99.90;;;;;;5231325;28;20104;-71
2023/01/14 06:35:42;;;;;;;16.98;10.02;;;7.60;99.90;;;;;;5236894;28;20066;-70
2023/01/14 06:38:13;;;;;;;14.98;11.07;;;7.90;99.90;;;;;;5231984;28;20045;-72
2023/01/14 06:40:44;;;;;;;14.65;9.55;;;7.70;99.90;;;;;;5232040;28;20016;-71
2023/01/14 06:43:15;;;;;;;16.92;11.65;;;7.60;99.90;;;;;;5232297;28;20048;-71
2023/01/14 06:45:52;;;;;;;18.40;9.00;;;7.60;99.90;;;;;;5231506;28;20063;-72
2023/01/14 06:48:24;;;;;;;18.65;10.25;;;8.10;99.90;;;;;;5233009;28;20029;-70
2023/01/14 06:50:55;;;;;;;16.85;11.70;;;7.70;99.90;;;;;;5236198;28;20020;-69
2023/01/14 06:53:26;;;;;;;21.52;11.73;;;7.60;99.90;;;;;;5230104;28;20036;-69
2023/01/14 06:56:10;;;;;;;21.65;12.77;;;7.90;99.90;;;;;;5238197;28;20025;-71
2023/01/14 06:58:41;;;;;;;18.85;13.25;;;7.60;99.90;;;;;;5233460;28;20934;-72
2023/01/14 07:01:12;;;;;;;16.27;10.82;;;7.90;99.90;;;;;;5231046;28;20029;-70
2023/01/14 07:03:44;;;;;;;16.40;11.55;;;7.60;99.90;;;;;;5238005;28;20040;-72
2023/01/14 07:06:15;;;;;;;19.77;12.15;;;7.70;99.90;;;;;;5227991;28;20034;-74
2023/01/14 07:08:45;;;;;;;21.33;12.20;;;7.80;99.90;;;;;;5231668;28;20037;-74
2023/01/14 07:11:16;;;;;;;17.27;12.50;;;7.90;99.90;;;;;;5229704;28;20029;-70
2023/01/14 07:13:47;;;;;;;15.80;11.13;;;7.90;99.90;;;;;;5229028;28;20040;-72
2023/01/14 07:16:18;;;;;;;26.73;14.35;;;7.70;99.90;;;;;;5231919;28;20132;-75
2023/01/14 07:18:48;;;;;;;19.52;13.70;;;7.70;99.90;;;;;;5232560;28;20083;-73
2023/01/14 07:21:19;;;;;;;15.63;10.65;;;8.00;99.90;;;;;;5233095;28;20025;-73
2023/01/14 07:23:50;;;;;;;17.45;10.68;;;7.70;99.90;;;;;;5222625;28;20378;-72
2023/01/14 07:26:21;;;;;;;22.95;13.30;;;8.00;99.90;;;;;;5225437;28;20021;-70
2023/01/14 07:28:54;;;;;;;17.85;13.98;;;8.30;99.90;;;;;;5233759;28;20035;-71
2023/01/14 07:31:25;;;;;;;19.98;13.48;;;7.90;99.90;;;;;;5238221;28;20020;-69
2023/01/14 07:33:56;;;;;;;19.38;14.40;;;8.30;99.90;;;;;;5230562;28;20016;-74
2023/01/14 07:36:26;;;;;;;16.05;11.77;;;8.00;99.90;;;;;;5229069;28;20491;-75
2023/01/14 07:38:57;;;;;;;15.55;11.57;;;8.30;99.90;;;;;;5221585;28;20033;-70
2023/01/14 07:41:28;;;;;;;22.85;11.57;;;7.80;99.90;;;;;;5232803;28;20045;-76
2023/01/14 07:44:00;;;;;;;20.45;10.90;;;7.80;99.90;;;;;;5227591;28;20025;-75
2023/01/14 07:46:32;;;;;;;21.58;11.63;;;8.30;99.90;;;;;;5228334;28;20363;-72
2023/01/14 07:49:03;;;;;;;15.48;10.40;;;8.00;99.90;;;;;;5224604;28;20022;-77
2023/01/14 07:51:34;;;;;;;14.18;11.30;;;8.10;99.90;;;;;;5228157;28;20044;-74
2023/01/14 07:54:04;;;;;;;17.95;11.65;;;8.10;99.90;;;;;;5228191;28;20158;-74
2023/01/14 07:56:35;;;;;;;17.73;12.65;;;8.00;99.90;;;;;;5236024;28;20392;-73
2023/01/14 07:59:06;;;;;;;21.50;12.63;;;8.30;99.90;;;;;;5232822;28;20021;-77
2023/01/14 08:01:37;;;;;;;19.48;12.27;;;8.50;99.90;;;;;;5231579;28;20041;-74
2023/01/14 08:04:08;;;;;;;20.17;12.02;;;8.30;99.90;;;;;;5231107;28;20721;-77
2023/01/14 08:06:39;;;;;;;13.38;10.25;;;8.30;99.90;;;;;;5225098;28;20025;-75
2023/01/14 08:09:10;;;;;;;13.38;10.10;;;8.10;99.90;;;;;;5223034;28;20112;-72
2023/01/14 08:11:40;;;;;;;14.52;10.23;;;8.30;99.90;;;;;;5233814;28;20024;-76
2023/01/14 08:14:11;;;;;;;12.35;10.88;;;7.90;99.90;;;;;;5230006;28;20116;-75
2023/01/14 08:16:42;;;;;;;13.43;10.60;;;8.20;99.90;;;;;;5229027;28;20563;-77
2023/01/14 08:19:15;;;;;;;16.35;9.80;;;8.10;99.90;;;;;;5235218;28;20182;-77
2023/01/14 08:21:46;;;;;;;13.23;10.98;;;7.80;99.90;;;;;;5227284;28;20072;-75
2023/01/14 08:24:17;;;;;;;14.02;11.20;;;7.90;99.90;;;;;;5229839;28;20091;-76
2023/01/14 08:26:47;;;;;;;15.98;10.98;;;8.10;99.90;;;;;;5222900;28;20063;-76
2023/01/14 08:29:18;;;;;;;13.48;10.52;;;8.30;99.90;;;;;;5226052;28;20099;-76
2023/01/14 08:31:56;;;;;;;16.60;9.43;;;8.40;99.90;;;;;;5232237;28;20108;-74
2023/01/14 08:34:27;;;;;;;15.93;11.60;;;8.10;99.90;;;;;;5223678;28;20032;-73
2023/01/14 08:36:58;;;;;;;18.55;13.45;;;8.30;99.90;;;;;;5229547;28;20447;-79
2023/01/14 08:39:29;;;;;;;16.85;12.27;;;7.90;99.90;;;;;;5229756;28;20033;-74
2023/01/14 08:42:00;;;;;;;16.30;11.93;;;7.90;99.90;;;;;;5235575;28;20040;-75
2023/01/14 08:44:31;;;;;;;21.63;12.35;;;8.00;99.90;;;;;;5234775;28;20452;-75
2023/01/14 08:47:01;;;;;;;16.38;11.57;;;7.90;99.90;;;;;;5234565;28;20028;-79
2023/01/14 08:49:32;;;;;;;14.27;9.63;;;7.80;99.90;;;;;;5229538;28;20028;-76
2023/01/14 08:52:03;;;;;;;15.13;9.90;;;8.00;99.90;;;;;;5229107;28;20021;-80
2023/01/14 08:54:34;;;;;;;13.65;9.88;;;8.30;99.90;;;;;;5227447;28;20036;-71
2023/01/14 08:57:05;;;;;;;12.35;9.60;;;8.50;99.90;;;;;;5227015;28;20028;-74
2023/01/14 08:59:36;;;;;;;13.43;10.57;;;8.00;99.90;;;;;;5228319;28;20484;-72
2023/01/14 09:02:14;;;;;;;14.18;8.07;;;8.20;99.90;;;;;;5233688;28;20032;-77
2023/01/14 09:04:45;;;;;;;14.75;8.73;;;8.10;99.90;;;;;;5228504;28;20044;-73
2023/01/14 09:18:35;;;;;;;12.50;8.85;;;8.30;99.90;;;;;;5225974;28;20091;-71
2023/01/14 09:21:06;;;;;;;12.68;8.65;;;8.00;99.90;;;;;;5228479;28;20036;-79
2023/01/14 09:23:39;;;;;;;9.95;8.43;;;8.10;99.90;;;;;;5232854;28;20057;-73
2023/01/14 09:26:10;;;;;;;12.07;9.48;;;8.10;99.90;;;;;;5224186;28;20031;-75
2023/01/14 09:28:41;;;;;;;14.15;9.77;;;8.00;99.90;;;;;;5231830;28;21104;-79
2023/01/14 09:31:12;;;;;;;11.45;8.90;;;8.20;99.90;;;;;;5228593;28;20057;-73
2023/01/14 09:33:42;;;;;;;9.77;7.90;;;8.50;99.90;;;;;;5232155;28;20025;-74
2023/01/14 09:36:13;;;;;;;9.00;7.43;;;8.00;99.90;;;;;;5235679;28;20484;-80
2023/01/14 09:38:44;;;;;;;9.20;7.80;;;8.30;99.90;;;;;;5229216;28;20024;-79
2023/01/14 09:41:30;;;;;;;9.40;7.45;;;8.30;99.90;;;;;;5227380;28;20039;-69
2023/01/14 09:44:04;;;;;;;13.02;7.85;;;8.00;99.90;;;;;;5223037;28;20040;-72
2023/01/14 09:46:36;;;;;;;10.65;7.95;;;7.90;99.90;;;;;;5239824;28;20065;-75
2023/01/14 09:49:09;;;;;;;10.50;7.45;;;7.80;99.90;;;;;;5223828;28;20041;-80
2023/01/14 09:52:07;;;;;;;11.15;7.53;;;7.90;99.90;;;;;;5232085;28;20037;-75
2023/01/14 09:55:06;;;;;;;12.30;7.60;;;8.10;99.90;;;;;;5234516;28;20503;-73
2023/01/14 09:58:09;;;;;;;10.15;8.07;;;8.10;99.90;;;;;;5233024;28;20017;-78
2023/01/14 10:00:45;;;;;;;9.35;7.13;;;8.10;99.90;;;;;;5229094;28;20040;-77
2023/01/14 10:03:58;;;;;;;15.82;8.40;;;8.10;99.90;;;;;;5236115;28;20413;-80
2023/01/14 10:06:29;;;;;;;12.80;8.02;;;7.90;99.90;;;;;;5214946;28;20517;-78
2023/01/14 10:09:06;;;;;;;15.88;8.68;;;7.90;99.90;;;;;;5232060;28;20115;-78
2023/01/14 10:11:43;;;;;;;12.32;8.75;;;7.80;99.90;;;;;;5227596;28;20021;-76
2023/01/14 10:14:20;;;;;;;12.07;7.45;;;7.80;99.90;;;;;;5727520;22;20053;-76
2023/01/14 10:16:56;;;;;;;11.80;8.23;;;7.60;99.90;;;;;;5203857;28;20033;-73
2023/01/14 10:19:39;;;;;;;12.15;8.80;;;7.80;99.90;;;;;;5211032;28;20021;-77
2023/01/14 10:22:31;;;;;;;9.82;7.45;;;7.50;99.90;;;;;;5218526;28;20099;-75
2023/01/14 10:25:04;;;;;;;15.32;12.57;;;7.60;99.90;;;;;;5208338;28;20475;-74
2023/01/14 10:27:35;;;;;;;11.77;8.05;;;8.00;99.90;;;;;;5229658;28;20029;-78
2023/01/14 10:30:22;;;;;;;10.00;8.00;;;8.10;99.90;;;;;;5229125;28;20507;-69
2023/01/14 10:32:54;;;;;;;10.57;8.02;;;7.80;99.90;;;;;;5228366;28;20028;-76
2023/01/14 10:35:39;;;;;;;13.98;9.50;;;7.80;99.90;;;;;;5228985;28;20384;-78
2023/01/14 10:38:20;;;;;;;44.38;20.98;;;8.10;99.90;;;;;;5228960;28;20033;-77
2023/01/14 10:40:54;;;;;;;45.63;25.90;;;8.00;99.90;;;;;;5224150;28;20030;-64
2023/01/14 10:43:31;;;;;;;26.15;16.08;;;7.90;99.90;;;;;;5207596;28;20039;-72
2023/01/14 10:46:02;;;;;;;18.55;12.63;;;8.10;99.90;;;;;;5208159;28;20061;-72
2023/01/14 10:48:44;;;;;;;16.58;12.75;;;7.70;99.90;;;;;;5227334;28;20055;-68
2023/01/14 10:51:47;;;;;;;17.38;10.57;;;8.00;99.90;;;;;;5214988;28;20116;-73
2023/01/14 10:54:19;;;;;;;25.52;17.20;;;8.10;99.90;;;;;;5212921;28;20091;-69
2023/01/14 10:56:54;;;;;;;23.38;15.13;;;8.00;99.90;;;;;;5228602;28;20083;-72
2023/01/14 10:59:49;;;;;;;16.55;11.25;;;7.80;99.90;;;;;;5228370;28;20108;-70
2023/01/14 11:02:22;;;;;;;16.00;11.20;;;7.60;99.90;;;;;;5228281;28;20040;-71
2023/01/14 11:04:55;;;;;;;20.98;12.95;;;8.30;99.90;;;;;;5227475;28;20021;-70
2023/01/14 11:07:38;;;;;;;14.93;9.55;;;8.50;99.90;;;;;;5227856;28;20021;-66
2023/01/14 11:10:21;;;;;;;16.20;11.25;;;8.50;99.90;;;;;;5228151;28;20503;-71
2023/01/14 11:12:52;;;;;;;18.70;11.23;;;8.40;99.90;;;;;;5228008;28;20487;-69
2023/01/14 11:15:33;;;;;;;15.38;10.13;;;8.10;99.90;;;;;;5227585;28;20037;-75
2023/01/14 11:18:19;;;;;;;15.80;11.13;;;8.20;99.90;;;;;;5227836;28;20033;-76
2023/01/14 11:21:11;;;;;;;18.70;13.50;;;8.30;99.90;;;;;;5227728;28;20024;-75
2023/01/14 11:23:44;;;;;;;30.48;18.85;;;8.10;99.90;;;;;;5227804;28;20495;-68
2023/01/14 11:26:25;;;;;;;19.40;13.00;;;7.70;99.90;;;;;;5226683;28;20055;-77
2023/01/14 11:29:23;;;;;;;24.83;13.98;;;8.10;99.90;;;;;;5217463;28;20093;-68
2023/01/14 11:32:10;;;;;;;14.15;10.20;;;8.00;99.90;;;;;;5217042;28;20040;-78
2023/01/14 11:34:50;;;;;;;22.95;13.95;;;8.00;99.90;;;;;;5223838;28;20102;-76
2023/01/14 11:37:34;;;;;;;16.45;11.07;;;7.70;99.90;;;;;;5224258;28;20480;-70
2023/01/14 11:40:06;;;;;;;20.30;13.70;;;7.50;99.90;;;;;;5227588;28;20057;-71
2023/01/14 11:42:42;;;;;;;18.13;9.77;;;7.80;99.90;;;;;;5227209;28;20036;-74
2023/01/14 11:45:12;;;;;;;18.77;11.82;;;7.90;99.90;;;;;;5227415;28;20040;-75
2023/01/14 11:47:51;;;;;;;21.45;14.50;;;7.70;99.90;;;;;;5216175;28;20038;-71
2023/01/14 11:50:27;;;;;;;33.53;21.17;;;8.00;99.90;;;;;;5224074;28;20021;-76
2023/01/14 11:53:16;;;;;;;16.17;11.32;;;7.80;99.90;;;;;;5218037;28;20029;-74
2023/01/14 11:55:49;;;;;;;17.38;12.07;;;7.90;99.90;;;;;;5216559;28;20082;-70
2023/01/14 11:58:22;;;;;;;20.92;13.02;;;7.80;99.90;;;;;;5216498;28;20029;-71
2023/01/14 12:01:04;;;;;;;32.58;18.48;;;7.80;99.90;;;;;;5216595;28;20028;-72
2023/01/14 12:04:02;;;;;;;30.25;19.40;;;7.90;99.90;;;;;;5216121;28;20082;-70
2023/01/14 12:07:02;;;;;;;42.17;27.08;;;8.00;99.90;;;;;;5216732;28;20940;-69
2023/01/14 12:09:47;;;;;;;31.57;16.83;;;8.00;99.90;;;;;;5211017;28;20044;-71
2023/01/14 12:16:48;;;;;;;20.17;13.30;;;8.00;99.90;;;;;;5216322;28;20039;-70
2023/01/14 12:18:34;;;;;;;19.88;13.40;;;8.60;99.90;;;;;;5216737;28;20036;-76
2023/01/14 12:21:06;;;;;;;30.92;17.02;;;8.30;99.90;;;;;;5216492;28;20042;-71
2023/01/14 12:23:45;;;;;;;27.75;16.13;;;8.30;99.90;;;;;;5198469;28;20770;-70
2023/01/14 12:26:22;;;;;;;21.23;14.82;;;8.10;99.90;;;;;;5215990;28;20023;-76
2023/01/14 12:28:59;;;;;;;23.77;12.25;;;8.00;99.90;;;;;;5216022;28;20021;-70
2023/01/14 12:31:40;;;;;;;19.83;12.80;;;8.00;99.90;;;;;;5216393;28;20029;-72
2023/01/14 12:34:39;;;;;;;20.52;13.00;;;8.20;99.90;;;;;;5216044;28;20059;-79
2023/01/14 12:37:15;;;;;;;22.70;14.30;;;8.20;99.90;;;;;;5195981;28;20041;-75
2023/01/14 12:45:44;;;;;;;26.60;17.27;;;8.00;99.90;;;;;;5215624;28;20029;-71
2023/01/14 12:48:21;;;;;;;20.20;13.02;;;8.00;99.90;;;;;;5215687;28;20032;-70
2023/01/14 12:51:06;;;;;;;41.92;22.80;;;8.00;99.90;;;;;;5216525;28;20759;-77
2023/01/14 12:53:49;;;;;;;26.95;16.20;;;8.20;99.90;;;;;;5216090;28;20091;-79
2023/01/14 12:56:30;;;;;;;31.70;20.35;;;8.20;99.90;;;;;;5216191;28;20037;-77
2023/01/14 12:59:16;;;;;;;;;;;8.20;99.90;;;;;;5216772;28;20147;-78
2023/01/14 13:02:25;;;;;;;25.17;15.80;;;8.20;99.90;;;;;;5215737;28;19950;-79
2023/01/14 13:05:16;;;;;;;25.52;16.80;;;8.10;99.90;;;;;;5208425;28;20795;-71
2023/01/14 13:07:58;;;;;;;20.88;13.23;;;8.20;99.90;;;;;;5215584;28;20013;-74
2023/01/14 13:10:34;;;;;;;21.05;13.73;;;8.30;99.90;;;;;;5215790;28;20033;-70
2023/01/14 13:15:46;;;;;;;19.90;12.88;;;8.50;99.90;;;;;;5385984;23;20488;-70
2023/01/14 13:18:29;;;;;;;23.10;15.68;;;8.40;99.90;;;;;;5173715;28;20121;-66
2023/01/14 13:21:05;;;;;;;17.45;11.98;;;8.30;99.90;;;;;;5167895;28;20034;-75
2023/01/14 13:23:36;;;;;;;22.40;13.88;;;8.30;99.90;;;;;;5176626;28;20038;-71
2023/01/14 13:26:41;;;;;;;20.55;14.88;;;8.20;99.90;;;;;;5174049;28;20065;-68
2023/01/14 13:29:15;;;;;;;22.50;11.27;;;8.60;99.90;;;;;;5173944;28;20049;-69
2023/01/14 13:31:46;;;;;;;16.10;12.02;;;8.70;99.90;;;;;;5174378;28;20026;-70
2023/01/14 13:34:23;;;;;;;16.73;11.55;;;8.30;99.90;;;;;;5174446;28;20018;-69
2023/01/14 13:36:59;;;;;;;20.42;11.93;;;8.30;99.90;;;;;;5174388;28;20030;-70
2023/01/14 13:39:32;;;;;;;19.67;12.48;;;8.10;99.90;;;;;;5174488;28;20041;-69
2023/01/14 13:42:25;;;;;;;19.10;12.77;;;8.50;99.90;;;;;;5174017;28;20042;-69
2023/01/14 13:44:59;;;;;;;18.80;11.85;;;8.40;99.90;;;;;;5186493;28;20461;-70
2023/01/14 13:47:35;;;;;;;25.52;16.23;;;8.70;99.90;;;;;;5193741;28;20068;-72
2023/01/14 13:50:18;;;;;;;17.48;11.27;;;8.20;99.90;;;;;;5193361;28;20029;-71
2023/01/14 13:52:54;;;;;;;23.50;13.10;;;8.30;99.90;;;;;;5193988;28;20057;-72
2023/01/14 13:55:29;;;;;;;21.05;13.00;;;8.30;99.90;;;;;;5194888;28;20032;-70
2023/01/14 13:58:20;;;;;;;21.70;15.23;;;8.50;99.90;;;;;;5194562;28;20052;-70
2023/01/14 14:01:21;;;;;;;14.35;10.38;;;8.20;99.90;;;;;;5198487;28;20029;-71
2023/01/14 14:03:54;;;;;;;15.77;11.55;;;8.20;99.90;;;;;;5198191;28;20037;-70
2023/01/14 14:06:26;;;;;;;16.42;10.77;;;8.30;99.90;;;;;;5198012;28;20033;-71